Terminal Aerodrome Forecast
Issued by NWS

Home | Current Version | Previous Version | Text Only | Print | Product List | Glossary On
Versions: 1 2 3 4 5 6 7 8 9 10 11 12 13
000
FTAK31 PAJN 291735
TAFAWG
TAF
PAWG 291735Z 2918/3018 10008KT P6SM -SHRA FEW002 SCT025 OVC050
      TEMPO 2918/2920 6SM -SHRA FEW002 BKN025 OVC040
     FM292000 VRB05KT P6SM -SHRA BKN040 OVC060
     FM300300 VRB04KT P6SM VCSH BKN050 OVC070
     FM300700 VRB04KT P6SM SCT025 OVC040
     FM301600 VRB04KT P6SM VCSH BKN050 OVC070=

USA.gov is the U.S. government's official web portal to all federal, state and local government web resources and services.